createdAt,value
2019-04-26T00:02:20.520Z,72.88
2019-04-26T00:04:49.269Z,73.32
2019-04-26T00:07:17.816Z,73.92
2019-04-26T00:09:47.769Z,74.35
2019-04-26T00:12:20.591Z,75.12
2019-04-26T00:14:51.053Z,75.17
2019-04-26T00:17:23.859Z,76.51
2019-04-26T00:19:52.637Z,76.67
2019-04-26T00:22:21.419Z,77.11
2019-04-26T00:24:50.042Z,76.83
2019-04-26T00:27:19.044Z,77.59
2019-04-26T00:29:47.541Z,77.47
2019-04-26T00:32:17.207Z,77.67
2019-04-26T00:34:45.771Z,78.07
2019-04-26T00:37:14.246Z,78.33
2019-04-26T00:39:42.782Z,79.63
2019-04-26T00:42:12.183Z,80.31
2019-04-26T00:44:41.728Z,80.58
2019-04-26T00:47:13.615Z,80.95
2019-04-26T00:49:43.849Z,82.04
2019-04-26T00:52:15.663Z,82.23
2019-04-26T00:54:45.344Z,82.27
2019-04-26T00:57:15.959Z,82.03
2019-04-26T00:59:44.681Z,81.88
2019-04-26T01:02:18.624Z,81.99
2019-04-26T01:04:47.170Z,81.79
2019-04-26T01:07:15.740Z,82.88
2019-04-26T01:09:44.211Z,83.18
2019-04-26T01:12:12.742Z,83.16
2019-04-26T01:14:41.213Z,82.22
2019-04-26T01:17:09.773Z,81.94
2019-04-26T01:19:39.290Z,82.42
2019-04-26T01:22:10.873Z,82.74
2019-04-26T01:24:42.419Z,83.20
2019-04-26T01:27:12.438Z,83.13
2019-04-26T01:29:42.173Z,82.91
2019-04-26T01:32:12.789Z,82.97
2019-04-26T01:34:43.370Z,83.26
2019-04-26T01:37:12.541Z,83.54
2019-04-26T01:39:45.860Z,83.34
2019-04-26T01:42:26.310Z,83.54
2019-04-26T01:44:59.573Z,81.96
2019-04-26T01:47:28.640Z,82.37
2019-04-26T01:49:57.544Z,81.92
2019-04-26T01:52:26.360Z,82.06
2019-04-26T01:54:55.223Z,81.05
2019-04-26T01:57:27.283Z,80.97
2019-04-26T01:59:59.105Z,80.00
2019-04-26T02:02:32.089Z,79.32
2019-04-26T02:05:02.435Z,78.28
2019-04-26T02:07:41.442Z,78.59
2019-04-26T02:10:15.906Z,79.20
2019-04-26T02:12:46.564Z,79.49
2019-04-26T02:15:16.021Z,80.11
2019-04-26T02:17:45.940Z,79.53
2019-04-26T02:20:16.112Z,79.16
2019-04-26T02:22:49.363Z,78.27
2019-04-26T02:25:17.940Z,78.34
2019-04-26T02:27:46.581Z,79.03
2019-04-26T02:30:15.232Z,78.20
2019-04-26T02:32:43.896Z,78.63
2019-04-26T02:35:12.721Z,79.19
2019-04-26T02:37:41.767Z,79.90
2019-04-26T02:40:13.337Z,80.12
2019-04-26T02:42:43.841Z,79.60
2019-04-26T02:45:42.315Z,80.36
2019-04-26T02:48:18.267Z,80.26
2019-04-26T02:51:04.313Z,79.09
2019-04-26T02:53:41.678Z,79.34
2019-04-26T02:56:18.912Z,78.94
2019-04-26T02:58:59.295Z,79.69
2019-04-26T03:01:31.668Z,80.41
2019-04-26T03:04:00.417Z,79.40
2019-04-26T03:06:33.873Z,80.17
2019-04-26T03:09:05.862Z,80.17
2019-04-26T03:11:38.969Z,79.58
2019-04-26T03:14:12.614Z,80.18
2019-04-26T03:16:45.788Z,80.05
2019-04-26T03:19:19.072Z,80.58
2019-04-26T03:22:17.771Z,80.74
2019-04-26T03:25:04.387Z,80.02
2019-04-26T03:27:50.542Z,80.21
2019-04-26T03:30:23.689Z,80.45
2019-04-26T03:32:58.537Z,79.56
2019-04-26T03:36:01.809Z,79.76
2019-04-26T03:38:52.045Z,79.64
2019-04-26T03:42:05.561Z,79.97
2019-04-26T03:44:41.096Z,80.04
2019-04-26T03:47:12.949Z,80.43
2019-04-26T03:49:47.448Z,81.05
2019-04-26T03:52:44.100Z,81.44
2019-04-26T03:55:30.130Z,81.57
2019-04-26T03:58:12.058Z,81.52
2019-04-26T04:00:47.060Z,82.12
2019-04-26T04:03:26.488Z,82.03
2019-04-26T04:05:56.986Z,82.48
2019-04-26T04:08:49.324Z,82.73
2019-04-26T04:11:23.673Z,83.08
2019-04-26T04:13:55.286Z,83.29
2019-04-26T04:16:30.151Z,83.71
2019-04-26T04:19:07.577Z,83.03
2019-04-26T04:22:01.576Z,83.77
2019-04-26T04:24:35.882Z,83.71
2019-04-26T04:27:19.151Z,84.28
2019-04-26T04:29:55.620Z,84.32
2019-04-26T04:32:26.872Z,83.85
2019-04-26T04:34:58.155Z,83.43
2019-04-26T04:37:29.712Z,82.71
2019-04-26T04:40:17.328Z,83.05
2019-04-26T04:42:56.214Z,82.48
2019-04-26T04:45:54.512Z,82.98
2019-04-26T04:48:36.195Z,82.77
2019-04-26T04:51:25.932Z,82.23
2019-04-26T04:54:09.417Z,81.09
2019-04-26T05:00:00.959Z,81.28
2019-04-26T05:02:54.927Z,80.89
2019-04-26T05:05:47.189Z,81.05
2019-04-26T05:08:24.719Z,82.17
2019-04-26T05:11:15.858Z,81.66
2019-04-26T05:13:47.852Z,78.79
2019-04-26T05:16:38.411Z,78.46
2019-04-26T05:19:38.365Z,78.36
2019-04-26T05:22:29.426Z,79.56
2019-04-26T05:25:21.687Z,78.54
2019-04-26T05:28:20.093Z,77.25
2019-04-26T05:31:02.026Z,77.52
2019-04-26T05:33:33.661Z,79.94
2019-04-26T05:36:09.633Z,78.38
2019-04-26T05:38:41.371Z,80.32
2019-04-26T05:41:30.242Z,81.79
2019-04-26T05:44:06.509Z,82.06
2019-04-26T05:46:45.564Z,82.53
2019-04-26T05:49:44.244Z,82.08
2019-04-26T05:52:48.301Z,81.68
2019-04-26T05:55:24.305Z,79.35
2019-04-26T05:58:09.211Z,78.77
2019-04-26T06:01:10.287Z,80.74
2019-04-26T06:04:17.362Z,81.62
2019-04-26T06:07:11.523Z,82.51
2019-04-26T06:10:11.465Z,83.05
2019-04-26T06:13:05.367Z,83.99
2019-04-26T06:15:52.947Z,84.44
2019-04-26T06:18:45.474Z,84.79
2019-04-26T06:21:25.577Z,84.83
2019-04-26T06:24:06.009Z,85.64
2019-04-26T06:27:12.140Z,84.11
2019-04-26T06:29:53.843Z,83.70
2019-04-26T06:32:36.205Z,83.65
2019-04-26T06:35:13.975Z,82.87
2019-04-26T06:38:02.029Z,82.13
2019-04-26T06:40:55.969Z,82.97
2019-04-26T06:43:32.705Z,84.75
2019-04-26T06:46:26.761Z,85.20
2019-04-26T06:49:16.979Z,84.53
2019-04-26T06:52:08.432Z,84.45
2019-04-26T06:54:51.472Z,83.44
2019-04-26T06:57:59.931Z,83.33
2019-04-26T07:01:05.432Z,82.87
2019-04-26T07:04:09.881Z,84.83
2019-04-26T07:06:44.483Z,84.62
2019-04-26T07:09:15.175Z,82.82
2019-04-26T07:11:48.367Z,83.26
2019-04-26T07:14:43.760Z,82.87
2019-04-26T07:17:23.983Z,82.67
2019-04-26T07:20:20.790Z,83.05
2019-04-26T07:23:02.176Z,83.46
2019-04-26T07:26:00.236Z,84.02
2019-04-26T07:29:06.898Z,83.05
2019-04-26T07:31:55.126Z,83.40
2019-04-26T07:34:44.617Z,82.97
2019-04-26T07:41:11.478Z,84.08
2019-04-26T07:44:22.779Z,83.41
2019-04-26T07:46:57.436Z,83.16
2019-04-26T07:49:51.404Z,84.00
2019-04-26T07:52:44.008Z,83.64
2019-04-26T07:55:30.468Z,84.03
2019-04-26T07:58:27.313Z,83.37
2019-04-26T08:01:38.043Z,84.81
2019-04-26T08:04:11.548Z,83.45
2019-04-26T08:06:45.130Z,83.84
2019-04-26T08:09:26.539Z,82.36
2019-04-26T08:11:53.916Z,83.84
2019-04-26T08:14:31.868Z,83.53
2019-04-26T08:17:16.625Z,83.99
2019-04-26T08:20:11.422Z,82.44
2019-04-26T08:22:43.881Z,84.31
2019-04-26T08:25:17.524Z,83.71
2019-04-26T08:27:47.071Z,83.44
2019-04-26T08:30:19.318Z,82.65
2019-04-26T08:33:02.191Z,82.23
2019-04-26T08:35:32.881Z,82.74
2019-04-26T08:38:08.083Z,82.29
2019-04-26T08:40:35.388Z,82.23
2019-04-26T08:43:22.932Z,82.73
2019-04-26T08:46:03.113Z,82.24
2019-04-26T08:48:32.506Z,83.06
2019-04-26T08:51:04.928Z,83.66
2019-04-26T08:53:36.611Z,83.33
2019-04-26T08:56:07.234Z,81.71
2019-04-26T08:58:38.851Z,82.86
2019-04-26T09:01:14.501Z,83.44
2019-04-26T09:04:03.961Z,82.40
2019-04-26T09:06:39.244Z,83.46
2019-04-26T09:09:24.004Z,84.37
2019-04-26T09:11:59.719Z,85.02
2019-04-26T09:14:30.342Z,82.53
2019-04-26T09:16:58.847Z,81.71
2019-04-26T09:19:30.551Z,83.41
2019-04-26T09:22:12.236Z,83.31
2019-04-26T09:24:31.169Z,83.70
2019-04-26T09:27:12.843Z,82.92
2019-04-26T09:30:11.498Z,82.80
2019-04-26T09:32:41.677Z,83.69
2019-04-26T09:35:11.242Z,84.05
2019-04-26T09:37:41.860Z,84.01
2019-04-26T09:40:19.739Z,83.19
2019-04-26T09:42:47.654Z,83.74
2019-04-26T09:45:34.711Z,84.30
2019-04-26T09:48:04.804Z,84.31
2019-04-26T09:50:40.992Z,84.45
2019-04-26T09:53:09.478Z,83.71
2019-04-26T09:55:38.140Z,84.16
2019-04-26T09:58:08.687Z,84.38
2019-04-26T10:00:37.403Z,85.04
2019-04-26T10:03:09.318Z,84.94
2019-04-26T10:05:36.185Z,85.07
2019-04-26T10:08:08.355Z,84.99
2019-04-26T10:10:36.405Z,83.88
2019-04-26T10:13:06.835Z,82.94
2019-04-26T10:15:42.979Z,82.08
2019-04-26T10:18:11.526Z,83.07
2019-04-26T10:20:39.989Z,84.14
2019-04-26T10:23:08.590Z,83.92
2019-04-26T10:25:37.025Z,82.91
2019-04-26T10:28:05.482Z,82.62
2019-04-26T10:30:38.373Z,82.85
2019-04-26T10:33:05.434Z,82.35
2019-04-26T10:35:38.163Z,82.38
2019-04-26T10:38:06.838Z,83.91
2019-04-26T10:40:35.990Z,84.42
2019-04-26T10:43:06.386Z,85.04
2019-04-26T10:45:34.861Z,85.78
2019-04-26T10:48:03.315Z,84.86
2019-04-26T10:50:33.044Z,85.23
2019-04-26T10:53:06.580Z,86.01
2019-04-26T10:55:46.389Z,85.50
2019-04-26T10:58:27.200Z,84.99
2019-04-26T11:00:57.385Z,85.99
2019-04-26T11:03:26.830Z,85.87
2019-04-26T11:05:55.471Z,86.43
2019-04-26T11:08:23.966Z,86.46
2019-04-26T11:10:52.441Z,85.46
2019-04-26T11:13:20.924Z,85.01
2019-04-26T11:15:49.497Z,85.72
2019-04-26T11:18:19.924Z,86.80
2019-04-26T11:20:48.314Z,86.64
2019-04-26T11:23:16.876Z,85.97
2019-04-26T11:25:45.442Z,85.53
2019-04-26T11:28:17.245Z,85.30
2019-04-26T11:30:44.254Z,85.71
2019-04-26T11:33:12.941Z,86.65
2019-04-26T11:35:41.422Z,86.28
2019-04-26T11:38:09.887Z,86.58
2019-04-26T11:40:38.332Z,86.43
2019-04-26T11:43:06.882Z,86.31
2019-04-26T11:45:35.410Z,87.27
2019-04-26T11:48:03.955Z,87.24
2019-04-26T11:50:32.418Z,86.79
2019-04-26T11:53:00.893Z,87.30
2019-04-26T11:55:31.521Z,87.00
2019-04-26T11:58:00.040Z,87.29
2019-04-26T12:00:32.965Z,87.16
2019-04-26T12:03:01.467Z,87.15
2019-04-26T12:05:43.260Z,86.50
2019-04-26T12:08:13.371Z,85.56
2019-04-26T12:10:44.478Z,82.18
2019-04-26T12:13:12.221Z,82.76
2019-04-26T12:15:43.706Z,83.91
2019-04-26T12:18:11.261Z,84.17
2019-04-26T12:20:39.753Z,84.44
2019-04-26T12:23:08.219Z,84.61
2019-04-26T12:25:38.729Z,85.76
2019-04-26T12:28:07.402Z,85.52
2019-04-26T12:30:36.022Z,85.00
2019-04-26T12:33:04.656Z,85.24
2019-04-26T12:35:33.139Z,83.77
2019-04-26T12:38:01.600Z,83.83
2019-04-26T12:40:30.106Z,84.22
2019-04-26T12:42:58.587Z,83.21
2019-04-26T12:45:40.777Z,82.23
2019-04-26T12:48:12.451Z,81.58
2019-04-26T12:50:41.148Z,83.06
2019-04-26T12:53:09.606Z,83.16
2019-04-26T12:55:38.138Z,81.15
2019-04-26T12:58:06.626Z,81.72
2019-04-26T13:00:37.452Z,81.37
2019-04-26T13:03:06.259Z,80.60
2019-04-26T13:05:34.787Z,82.33
2019-04-26T13:08:03.228Z,81.86
2019-04-26T13:10:35.552Z,81.60
2019-04-26T13:13:10.862Z,81.66
2019-04-26T13:16:04.782Z,80.09
2019-04-26T13:18:33.243Z,81.50
2019-04-26T13:21:03.091Z,82.20
2019-04-26T13:23:32.033Z,81.71
2019-04-26T13:26:01.564Z,81.60
2019-04-26T13:28:30.153Z,81.95
2019-04-26T13:30:58.679Z,82.15
2019-04-26T13:33:27.876Z,82.56
2019-04-26T13:36:04.619Z,82.56
2019-04-26T13:38:27.513Z,80.89
2019-04-26T13:40:59.579Z,80.08
2019-04-26T13:43:27.076Z,80.85
2019-04-26T13:46:13.847Z,81.00
2019-04-26T13:48:46.370Z,81.32
2019-04-26T13:51:28.332Z,81.59
2019-04-26T13:53:56.789Z,80.86
2019-04-26T13:56:25.247Z,80.43
2019-04-26T13:58:54.457Z,80.44
2019-04-26T14:01:24.770Z,81.36
2019-04-26T14:03:53.314Z,81.35
2019-04-26T14:06:21.869Z,81.22
2019-04-26T14:08:53.966Z,79.96
2019-04-26T14:11:27.909Z,76.03
2019-04-26T14:13:50.838Z,76.02
2019-04-26T14:16:21.172Z,76.42
2019-04-26T14:18:49.568Z,75.47
2019-04-26T14:21:18.152Z,76.49
2019-04-26T14:24:04.012Z,75.42
2019-04-26T14:26:41.475Z,76.52
2019-04-26T14:29:10.228Z,75.51
2019-04-26T14:31:38.715Z,77.50
2019-04-26T14:34:07.370Z,74.64
2019-04-26T14:36:35.911Z,75.35
2019-04-26T14:39:10.593Z,74.74
2019-04-26T14:41:40.101Z,74.57
2019-04-26T14:44:15.646Z,76.38
2019-04-26T14:46:48.758Z,74.37
2019-04-26T14:49:09.643Z,73.80
2019-04-26T14:51:40.544Z,74.61
2019-04-26T14:54:11.453Z,74.22
2019-04-26T14:56:51.502Z,72.26
2019-04-26T14:59:10.284Z,71.50
2019-04-26T15:01:55.907Z,71.57
2019-04-26T15:04:44.098Z,71.01
2019-04-26T15:07:12.775Z,69.79
2019-04-26T15:09:42.855Z,68.90
2019-04-26T15:12:12.489Z,67.67
2019-04-26T15:14:42.271Z,67.99
2019-04-26T15:17:12.286Z,65.22
2019-04-26T15:19:45.933Z,68.28
2019-04-26T15:22:12.234Z,64.38
2019-04-26T15:24:42.166Z,61.39
2019-04-26T15:27:10.783Z,60.92
2019-04-26T15:29:39.324Z,61.60
2019-04-26T15:32:07.955Z,59.70
2019-04-26T15:34:51.367Z,60.10
2019-04-26T15:37:25.008Z,61.00
2019-04-26T15:39:56.782Z,58.81
2019-04-26T15:42:40.640Z,52.73
2019-04-26T15:45:11.006Z,60.74
2019-04-26T15:47:58.803Z,60.52
2019-04-26T15:50:31.664Z,57.23
2019-04-26T15:53:00.127Z,57.30
2019-04-26T15:55:33.838Z,56.39
2019-04-26T15:58:02.686Z,57.77
2019-04-26T16:00:32.763Z,59.37
2019-04-26T16:03:03.864Z,59.70
2019-04-26T16:05:31.289Z,59.42
2019-04-26T16:08:01.842Z,60.93
2019-04-26T16:10:37.066Z,61.89
2019-04-26T16:13:15.797Z,61.44
2019-04-26T16:15:32.247Z,60.63
2019-04-26T16:18:03.921Z,61.40
2019-04-26T16:20:37.470Z,61.14
2019-04-26T16:23:06.208Z,62.09
2019-04-26T16:25:34.336Z,60.39
2019-04-26T16:28:19.325Z,62.38
2019-04-26T16:30:49.423Z,62.59
2019-04-26T16:33:28.519Z,63.04
2019-04-26T16:35:57.391Z,61.36
2019-04-26T16:38:33.511Z,62.77
2019-04-26T16:41:03.304Z,63.18
2019-04-26T16:43:37.692Z,64.90
2019-04-26T16:46:02.395Z,63.98
2019-04-26T16:48:30.804Z,62.50
2019-04-26T16:51:03.677Z,62.54
2019-04-26T16:53:43.731Z,63.16
2019-04-26T16:55:59.971Z,64.73
2019-04-26T16:58:30.923Z,65.04
2019-04-26T17:00:58.788Z,63.81
2019-04-26T17:03:27.461Z,63.53
2019-04-26T17:06:04.623Z,64.02
2019-04-26T17:08:32.241Z,64.50
2019-04-26T17:11:08.260Z,66.30
2019-04-26T17:13:48.383Z,66.11
2019-04-26T17:16:12.857Z,66.43
2019-04-26T17:18:42.670Z,66.39
2019-04-26T17:21:13.339Z,66.88
2019-04-26T17:24:05.944Z,68.24
2019-04-26T17:26:36.332Z,68.26
2019-04-26T17:29:03.650Z,67.66
2019-04-26T17:31:33.597Z,69.00
2019-04-26T17:34:03.285Z,69.02
2019-04-26T17:36:34.405Z,69.55
2019-04-26T17:39:03.698Z,70.37
2019-04-26T17:41:33.259Z,69.68
2019-04-26T17:44:08.282Z,69.99
2019-04-26T17:46:32.605Z,70.67
2019-04-26T17:49:01.248Z,71.23
2019-04-26T17:51:32.460Z,70.97
2019-04-26T17:54:21.130Z,70.33
2019-04-26T17:56:31.501Z,70.55
2019-04-26T17:59:03.166Z,72.26
2019-04-26T18:01:44.374Z,73.56
2019-04-26T18:04:01.499Z,73.93
2019-04-26T18:06:30.223Z,75.16
2019-04-26T18:08:58.750Z,75.35
2019-04-26T18:11:27.384Z,75.71
2019-04-26T18:13:56.013Z,75.12
2019-04-26T18:16:29.176Z,74.84
2019-04-26T18:18:59.265Z,75.35
2019-04-26T18:21:45.483Z,75.44
2019-04-26T18:24:14.013Z,75.16
2019-04-26T18:26:42.519Z,75.31
2019-04-26T18:29:13.030Z,75.75
2019-04-26T18:31:43.737Z,75.84
2019-04-26T18:34:12.826Z,75.29
2019-04-26T18:36:43.005Z,76.16
2019-04-26T18:39:11.581Z,75.85
2019-04-26T18:41:40.173Z,76.15
2019-04-26T18:44:08.990Z,75.82
2019-04-26T18:46:48.206Z,76.37
2019-04-26T18:49:22.525Z,76.03
2019-04-26T18:51:48.494Z,76.63
2019-04-26T18:54:18.910Z,77.25
2019-04-26T18:56:51.459Z,77.75
2019-04-26T18:59:19.993Z,78.27
2019-04-26T19:01:48.671Z,79.52
2019-04-26T19:04:17.256Z,79.15
2019-04-26T19:06:45.748Z,77.63
2019-04-26T19:09:15.640Z,77.43
2019-04-26T19:11:48.719Z,77.64
2019-04-26T19:14:16.014Z,77.48
2019-04-26T19:16:50.606Z,76.47
2019-04-26T19:19:25.368Z,76.95
2019-04-26T19:21:54.566Z,77.12
2019-04-26T19:24:23.188Z,77.55
2019-04-26T19:26:51.774Z,77.34
2019-04-26T19:29:27.016Z,77.29
2019-04-26T19:31:52.260Z,77.63
2019-04-26T19:34:21.932Z,78.10
2019-04-26T19:36:52.330Z,78.20
2019-04-26T19:39:31.700Z,77.92
2019-04-26T19:41:57.327Z,78.54
2019-04-26T19:44:24.046Z,79.05
2019-04-26T19:46:58.091Z,79.39
2019-04-26T19:49:40.197Z,79.30
2019-04-26T19:52:13.138Z,79.07
2019-04-26T19:54:55.110Z,79.17
2019-04-26T19:57:25.374Z,79.11
2019-04-26T19:59:53.850Z,78.47
2019-04-26T20:02:22.434Z,78.62
2019-04-26T20:04:51.429Z,78.51
2019-04-26T20:07:19.986Z,78.41
2019-04-26T20:09:48.474Z,77.99
2019-04-26T20:12:17.004Z,78.11
2019-04-26T20:14:50.981Z,77.95
2019-04-26T20:17:19.880Z,77.97
2019-04-26T20:19:47.635Z,78.16
2019-04-26T20:22:16.270Z,78.69
2019-04-26T20:24:48.538Z,79.42
2019-04-26T20:27:20.382Z,79.73
2019-04-26T20:29:47.426Z,79.89
2019-04-26T20:32:24.003Z,79.99
2019-04-26T20:34:56.910Z,80.21
2019-04-26T20:37:25.817Z,80.45
2019-04-26T20:40:15.489Z,80.89
2019-04-26T20:42:24.555Z,81.03
2019-04-26T20:44:53.802Z,81.06
2019-04-26T20:47:22.503Z,80.74
2019-04-26T20:50:00.793Z,80.74
2019-04-26T20:52:24.784Z,80.91
2019-04-26T20:54:54.052Z,80.64
2019-04-26T20:57:21.979Z,79.70
2019-04-26T20:59:52.050Z,79.32
2019-04-26T21:02:24.646Z,79.52
2019-04-26T21:04:51.546Z,79.48
2019-04-26T21:07:21.784Z,79.63
2019-04-26T21:09:50.436Z,79.43
2019-04-26T21:12:19.173Z,79.55
2019-04-26T21:14:47.804Z,79.76
2019-04-26T21:17:19.462Z,80.01
2019-04-26T21:19:49.912Z,79.92
2019-04-26T21:22:18.322Z,80.52
2019-04-26T21:24:58.315Z,79.70
2019-04-26T21:27:29.889Z,79.83
2019-04-26T21:30:04.185Z,80.03
2019-04-26T21:32:37.690Z,80.07
2019-04-26T21:35:08.935Z,79.97
2019-04-26T21:37:39.046Z,79.74
2019-04-26T21:40:26.131Z,80.01
2019-04-26T21:42:59.343Z,80.56
2019-04-26T21:45:28.228Z,80.51
2019-04-26T21:47:55.063Z,80.51
2019-04-26T21:50:23.563Z,80.21
2019-04-26T21:52:54.008Z,80.45
2019-04-26T21:55:26.579Z,81.02
2019-04-26T21:57:53.803Z,81.27
2019-04-26T22:00:24.884Z,81.93
2019-04-26T22:02:53.557Z,83.12
2019-04-26T22:05:22.215Z,83.98
2019-04-26T22:07:50.676Z,83.76
2019-04-26T22:10:20.883Z,83.41
2019-04-26T22:12:49.455Z,83.29
2019-04-26T22:15:37.520Z,84.08
2019-04-26T22:18:14.883Z,85.14
2019-04-26T22:20:50.918Z,85.18
2019-04-26T22:23:21.351Z,85.82
2019-04-26T22:25:50.502Z,86.18
2019-04-26T22:28:18.972Z,85.80
2019-04-26T22:30:47.456Z,85.73
2019-04-26T22:33:15.973Z,85.16
2019-04-26T22:35:44.546Z,85.03
2019-04-26T22:38:13.025Z,85.05
2019-04-26T22:40:41.495Z,84.00
2019-04-26T22:43:20.665Z,84.05
2019-04-26T22:45:50.816Z,84.17
2019-04-26T22:48:25.096Z,84.17
2019-04-26T22:50:52.076Z,83.55
2019-04-26T22:53:25.372Z,83.74
2019-04-26T22:55:53.540Z,84.01
2019-04-26T22:58:25.590Z,84.44
2019-04-26T23:00:53.727Z,84.92
2019-04-26T23:03:24.020Z,84.78
2019-04-26T23:05:53.727Z,84.03
2019-04-26T23:08:23.657Z,84.19
2019-04-26T23:10:53.908Z,84.68
2019-04-26T23:13:24.021Z,85.20
2019-04-26T23:16:11.443Z,85.17
2019-04-26T23:18:56.533Z,85.94
2019-04-26T23:21:35.781Z,86.79
2019-04-26T23:24:04.422Z,87.04
2019-04-26T23:26:33.478Z,86.99
2019-04-26T23:29:03.750Z,87.19
2019-04-26T23:31:33.480Z,87.23
2019-04-26T23:34:02.974Z,86.60
2019-04-26T23:36:31.503Z,86.64
2019-04-26T23:39:00.085Z,86.84
2019-04-26T23:41:28.570Z,87.26
2019-04-26T23:44:02.909Z,87.76
2019-04-26T23:46:27.298Z,88.16
2019-04-26T23:48:56.015Z,88.00
2019-04-26T23:51:26.220Z,88.04
2019-04-26T23:53:57.646Z,88.11
2019-04-26T23:56:25.450Z,88.22
2019-04-26T23:58:54.090Z,88.16
